createdAt,value
2022-12-11T00:01:39.810Z,1.00
2022-12-11T00:04:06.705Z,1.00
2022-12-11T00:06:35.040Z,1.00
2022-12-11T00:09:02.253Z,1.00
2022-12-11T00:11:29.308Z,1.00
2022-12-11T00:13:56.542Z,1.00
2022-12-11T00:16:27.157Z,1.00
2022-12-11T00:18:54.658Z,1.00
2022-12-11T00:21:21.538Z,1.00
2022-12-11T00:23:50.132Z,1.00
2022-12-11T00:26:17.569Z,1.00
2022-12-11T00:28:45.519Z,1.00
2022-12-11T00:31:15.460Z,1.00
2022-12-11T00:33:42.817Z,1.00
2022-12-11T00:36:13.926Z,1.00
2022-12-11T00:38:41.650Z,1.00
2022-12-11T00:41:10.304Z,1.00
2022-12-11T00:43:37.866Z,1.00
2022-12-11T00:46:05.130Z,1.00
2022-12-11T00:48:32.704Z,1.00
2022-12-11T00:50:59.777Z,1.00
2022-12-11T00:53:27.028Z,1.00
2022-12-11T00:55:53.960Z,1.00
2022-12-11T00:58:23.000Z,1.00
2022-12-11T01:00:50.142Z,1.00
2022-12-11T01:03:17.625Z,1.00
2022-12-11T01:05:52.933Z,1.00
2022-12-11T01:08:20.604Z,1.00
2022-12-11T01:10:47.639Z,1.00
2022-12-11T01:13:15.027Z,1.00
2022-12-11T01:15:44.963Z,1.00
2022-12-11T01:18:13.883Z,1.00
2022-12-11T01:20:42.532Z,1.00
2022-12-11T01:23:13.253Z,1.00
2022-12-11T01:25:41.258Z,1.00
2022-12-11T01:28:09.273Z,1.00
2022-12-11T01:30:37.643Z,1.00
2022-12-11T01:33:06.322Z,1.00
2022-12-11T01:35:33.606Z,1.00
2022-12-11T01:38:00.613Z,1.00
2022-12-11T01:40:27.908Z,1.00
2022-12-11T01:42:54.811Z,1.00
2022-12-11T01:45:38.933Z,1.00
2022-12-11T01:48:10.900Z,1.00
2022-12-11T01:50:46.656Z,1.00
2022-12-11T01:53:17.909Z,1.00
2022-12-11T01:55:46.663Z,1.00
2022-12-11T01:58:14.845Z,1.00
2022-12-11T02:00:42.093Z,1.00
2022-12-11T02:03:10.919Z,1.00
2022-12-11T02:05:38.988Z,1.00
2022-12-11T02:08:07.490Z,1.00
2022-12-11T02:10:50.493Z,1.00
2022-12-11T02:13:23.471Z,1.00
2022-12-11T02:15:58.645Z,1.00
2022-12-11T02:18:33.827Z,1.00
2022-12-11T02:21:08.624Z,1.00
2022-12-11T02:24:01.528Z,1.00
2022-12-11T02:26:43.764Z,1.00
2022-12-11T02:29:18.897Z,1.00
2022-12-11T02:31:51.798Z,1.00
2022-12-11T02:34:23.650Z,1.00
2022-12-11T02:36:55.838Z,1.00
2022-12-11T02:39:25.758Z,1.00
2022-12-11T02:41:53.164Z,1.00
2022-12-11T02:44:25.075Z,1.00
2022-12-11T02:46:53.461Z,1.00
2022-12-11T02:49:22.725Z,1.00
2022-12-11T02:51:52.688Z,1.00
2022-12-11T02:54:24.243Z,1.00
2022-12-11T02:56:55.518Z,1.00
2022-12-11T02:59:29.300Z,1.00
2022-12-11T03:01:56.497Z,1.00
2022-12-11T03:04:24.858Z,1.00
2022-12-11T03:06:55.816Z,1.00
2022-12-11T03:09:22.709Z,1.00
2022-12-11T03:11:49.888Z,1.00
2022-12-11T03:14:16.829Z,1.00
2022-12-11T03:16:51.972Z,1.00
2022-12-11T03:19:28.130Z,1.00
2022-12-11T03:22:00.919Z,1.00
2022-12-11T03:24:33.088Z,1.00
2022-12-11T03:27:10.877Z,1.00
2022-12-11T03:29:42.949Z,1.00
2022-12-11T03:32:14.865Z,1.00
2022-12-11T03:34:45.108Z,1.00
2022-12-11T03:37:14.417Z,1.00
2022-12-11T03:39:51.329Z,1.00
2022-12-11T03:42:21.402Z,1.00
2022-12-11T03:44:50.292Z,1.00
2022-12-11T03:47:21.337Z,1.00
2022-12-11T03:49:49.879Z,1.00
2022-12-11T03:52:18.606Z,1.00
2022-12-11T03:54:49.485Z,1.00
2022-12-11T03:57:19.557Z,1.00
2022-12-11T03:59:46.680Z,1.00
2022-12-11T04:02:14.052Z,1.00
2022-12-11T04:04:42.677Z,1.00
2022-12-11T04:07:09.832Z,1.00
2022-12-11T04:09:37.179Z,1.00
2022-12-11T04:12:06.175Z,1.00
2022-12-11T04:14:51.599Z,1.00
2022-12-11T04:17:38.854Z,1.00
2022-12-11T04:20:26.373Z,1.00
2022-12-11T04:23:12.198Z,1.00
2022-12-11T04:25:39.357Z,1.00
2022-12-11T04:28:06.213Z,1.00
2022-12-11T04:30:34.440Z,1.00
2022-12-11T04:33:02.341Z,1.00
2022-12-11T04:35:30.706Z,1.00
2022-12-11T04:37:58.514Z,1.00
2022-12-11T04:40:25.416Z,1.00
2022-12-11T04:42:52.708Z,1.00
2022-12-11T04:45:19.821Z,1.00
2022-12-11T04:47:47.085Z,1.00
2022-12-11T04:50:14.599Z,1.00
2022-12-11T04:52:43.160Z,1.00
2022-12-11T04:55:11.491Z,1.00
2022-12-11T04:57:39.026Z,1.00
2022-12-11T05:00:08.492Z,1.00
2022-12-11T05:02:36.724Z,1.00
2022-12-11T05:05:04.900Z,1.00
2022-12-11T05:07:32.160Z,1.00
2022-12-11T05:10:00.429Z,1.00
2022-12-11T05:12:27.943Z,1.00
2022-12-11T05:14:55.300Z,1.00
2022-12-11T05:17:22.954Z,1.00
2022-12-11T05:19:50.884Z,1.00
2022-12-11T05:22:19.204Z,1.00
2022-12-11T05:24:46.112Z,1.00
2022-12-11T05:27:14.803Z,1.00
2022-12-11T05:29:42.146Z,1.00
2022-12-11T05:32:09.353Z,1.00
2022-12-11T05:34:36.265Z,1.00
2022-12-11T05:37:03.650Z,1.00
2022-12-11T05:39:30.590Z,1.00
2022-12-11T05:41:58.035Z,1.00
2022-12-11T05:44:27.003Z,1.00
2022-12-11T05:46:54.203Z,1.00
2022-12-11T05:49:25.934Z,1.00
2022-12-11T05:51:55.967Z,1.00
2022-12-11T05:54:22.879Z,1.00
2022-12-11T05:56:51.567Z,1.00
2022-12-11T05:59:19.686Z,1.00
2022-12-11T06:01:48.483Z,1.00
2022-12-11T06:04:15.413Z,1.00
2022-12-11T06:06:43.794Z,1.00
2022-12-11T06:09:14.989Z,1.00
2022-12-11T06:11:42.640Z,1.00
2022-12-11T06:14:11.883Z,1.00
2022-12-11T06:16:38.892Z,1.00
2022-12-11T06:19:07.460Z,1.00
2022-12-11T06:21:34.400Z,1.00
2022-12-11T06:24:03.763Z,1.00
2022-12-11T06:26:31.920Z,1.00
2022-12-11T06:28:59.186Z,1.00
2022-12-11T06:31:26.393Z,1.00
2022-12-11T06:33:54.676Z,1.00
2022-12-11T06:36:24.272Z,1.00
2022-12-11T06:38:51.884Z,1.00
2022-12-11T06:41:18.813Z,1.00
2022-12-11T06:43:46.140Z,1.00
2022-12-11T06:46:15.108Z,1.00
2022-12-11T06:48:43.094Z,1.00
2022-12-11T06:51:12.358Z,1.00
2022-12-11T06:53:41.634Z,1.00
2022-12-11T06:56:10.832Z,1.00
2022-12-11T06:58:38.826Z,1.00
2022-12-11T07:01:15.695Z,1.00
2022-12-11T07:03:43.030Z,1.00
2022-12-11T07:06:10.330Z,1.00
2022-12-11T07:08:37.824Z,1.00
2022-12-11T07:11:08.775Z,1.00
2022-12-11T07:13:36.871Z,1.00
2022-12-11T07:16:10.489Z,1.00
2022-12-11T07:18:38.518Z,1.00
2022-12-11T07:21:06.131Z,1.00
2022-12-11T07:23:35.053Z,1.00
2022-12-11T07:26:06.616Z,1.00
2022-12-11T07:28:34.423Z,1.00
2022-12-11T07:31:05.581Z,1.00
2022-12-11T07:33:32.867Z,1.00
2022-12-11T07:36:02.643Z,1.00
2022-12-11T07:38:29.683Z,1.00
2022-12-11T07:40:56.928Z,1.00
2022-12-11T07:43:25.511Z,1.00
2022-12-11T07:45:52.463Z,1.00
2022-12-11T07:48:19.838Z,1.00
2022-12-11T07:50:46.792Z,1.00
2022-12-11T07:53:13.689Z,1.00
2022-12-11T07:55:40.654Z,1.00
2022-12-11T07:58:07.841Z,1.00
2022-12-11T08:00:36.186Z,1.00
2022-12-11T08:03:03.696Z,1.00
2022-12-11T08:05:30.754Z,1.00
2022-12-11T08:07:58.053Z,1.00
2022-12-11T08:10:25.099Z,1.00
2022-12-11T08:12:52.108Z,1.00
2022-12-11T08:15:19.221Z,1.00
2022-12-11T08:17:47.459Z,1.00
2022-12-11T08:20:14.707Z,1.00
2022-12-11T08:22:41.661Z,1.00
2022-12-11T08:25:09.533Z,1.00
2022-12-11T08:27:36.719Z,1.00
2022-12-11T08:30:05.411Z,1.00
2022-12-11T08:32:32.338Z,1.00
2022-12-11T08:35:00.995Z,1.00
2022-12-11T08:37:28.009Z,1.00
2022-12-11T08:39:55.413Z,1.00
2022-12-11T08:42:22.328Z,1.00
2022-12-11T08:44:49.569Z,1.00
2022-12-11T08:47:16.487Z,1.00
2022-12-11T08:49:43.496Z,1.00
2022-12-11T08:52:11.787Z,1.00
2022-12-11T08:54:39.252Z,1.00
2022-12-11T08:57:06.154Z,1.00
2022-12-11T08:59:33.211Z,1.00
2022-12-11T09:02:00.094Z,1.00
2022-12-11T09:04:27.049Z,1.00
2022-12-11T09:06:53.939Z,1.00
2022-12-11T09:09:22.600Z,1.00
2022-12-11T09:11:49.755Z,1.00
2022-12-11T09:14:17.033Z,1.00
2022-12-11T09:16:43.946Z,1.00
2022-12-11T09:19:17.391Z,1.00
2022-12-11T09:21:44.841Z,1.00
2022-12-11T09:24:13.499Z,1.00
2022-12-11T09:26:42.139Z,1.00
2022-12-11T09:29:13.677Z,1.00
2022-12-11T09:31:40.907Z,1.00
2022-12-11T09:34:11.989Z,1.00
2022-12-11T09:36:39.824Z,1.00
2022-12-11T09:39:08.943Z,1.00
2022-12-11T09:41:39.026Z,1.00
2022-12-11T09:44:24.025Z,1.00
2022-12-11T09:46:51.902Z,1.00
2022-12-11T09:49:35.377Z,1.00
2022-12-11T09:52:13.837Z,1.00
2022-12-11T09:54:48.297Z,1.00
2022-12-11T09:57:25.372Z,1.00
2022-12-11T10:00:05.971Z,1.00
2022-12-11T10:02:41.790Z,1.00
2022-12-11T10:05:19.854Z,1.00
2022-12-11T10:07:52.597Z,1.00
2022-12-11T10:10:29.699Z,1.00
2022-12-11T10:13:04.848Z,1.00
2022-12-11T10:15:39.073Z,1.00
2022-12-11T10:18:12.783Z,1.00
2022-12-11T10:20:40.682Z,1.00
2022-12-11T10:23:09.246Z,1.00
2022-12-11T10:25:40.349Z,1.00
2022-12-11T10:28:13.229Z,1.00
2022-12-11T10:30:48.220Z,1.00
2022-12-11T10:33:21.478Z,1.00
2022-12-11T10:35:50.911Z,1.00
2022-12-11T10:38:25.637Z,1.00
2022-12-11T10:40:56.338Z,1.00
2022-12-11T10:43:34.086Z,1.00
2022-12-11T10:46:02.795Z,1.00
2022-12-11T10:48:29.697Z,1.00
2022-12-11T10:51:00.447Z,1.00
2022-12-11T10:53:27.893Z,1.00
2022-12-11T10:55:58.019Z,1.00
2022-12-11T10:58:26.878Z,1.00
2022-12-11T11:01:07.601Z,1.00
2022-12-11T11:03:41.978Z,1.00
2022-12-11T11:06:17.745Z,1.00
2022-12-11T11:08:47.159Z,1.00
2022-12-11T11:11:23.196Z,1.00
2022-12-11T11:13:50.418Z,1.00
2022-12-11T11:16:22.347Z,1.00
2022-12-11T11:18:54.051Z,1.00
2022-12-11T11:21:24.257Z,1.00
2022-12-11T11:23:53.563Z,1.00
2022-12-11T11:26:23.254Z,1.00
2022-12-11T11:28:53.048Z,1.00
2022-12-11T11:31:30.801Z,1.00
2022-12-11T11:33:59.841Z,1.00
2022-12-11T11:36:29.814Z,1.00
2022-12-11T11:39:06.044Z,1.00
2022-12-11T11:41:40.874Z,99.90
2022-12-11T11:44:11.629Z,99.90
2022-12-11T11:46:44.925Z,99.90
2022-12-11T11:49:20.476Z,99.90
2022-12-11T11:51:54.282Z,99.90
2022-12-11T11:54:29.167Z,99.90
2022-12-11T11:56:57.585Z,99.90
2022-12-11T11:59:31.204Z,99.90
2022-12-11T12:01:59.993Z,99.90
2022-12-11T12:04:32.092Z,99.90
2022-12-11T12:07:24.306Z,99.90
2022-12-11T12:10:01.295Z,99.90
2022-12-11T12:12:39.475Z,99.90
2022-12-11T12:15:20.481Z,99.90
2022-12-11T12:17:56.125Z,99.90
2022-12-11T12:20:29.644Z,99.90
2022-12-11T12:23:15.422Z,99.90
2022-12-11T12:25:45.506Z,99.90
2022-12-11T12:28:22.198Z,99.90
2022-12-11T12:31:02.971Z,99.90
2022-12-11T12:33:46.309Z,99.90
2022-12-11T12:36:21.493Z,1.00
2022-12-11T12:38:54.527Z,1.00
2022-12-11T12:41:27.087Z,1.40
2022-12-11T12:44:11.464Z,1.40
2022-12-11T12:46:49.369Z,1.00
2022-12-11T12:49:25.201Z,1.00
2022-12-11T12:51:54.148Z,99.90
2022-12-11T12:54:22.020Z,99.90
2022-12-11T12:56:50.017Z,99.90
2022-12-11T12:59:22.384Z,99.90
2022-12-11T13:01:52.721Z,99.90
2022-12-11T13:07:30.070Z,1.00
2022-12-11T13:10:01.317Z,1.00
2022-12-11T13:12:39.859Z,1.00
2022-12-11T13:15:24.704Z,1.00
2022-12-11T13:17:51.989Z,1.00
2022-12-11T13:20:22.408Z,1.00
2022-12-11T13:22:53.842Z,1.00
2022-12-11T13:25:27.790Z,1.00
2022-12-11T13:28:06.232Z,1.00
2022-12-11T13:30:34.477Z,1.00
2022-12-11T13:33:05.262Z,1.00
2022-12-11T13:35:35.299Z,1.00
2022-12-11T13:38:07.409Z,1.00
2022-12-11T13:40:39.112Z,1.00
2022-12-11T13:43:10.329Z,1.00
2022-12-11T13:45:45.197Z,1.00
2022-12-11T13:48:20.019Z,1.00
2022-12-11T13:50:49.830Z,1.00
2022-12-11T13:53:18.879Z,1.00
2022-12-11T13:55:46.181Z,1.00
2022-12-11T13:58:18.704Z,1.00
2022-12-11T14:00:59.363Z,1.00
2022-12-11T14:03:27.298Z,1.00
2022-12-11T14:05:55.673Z,1.00
2022-12-11T14:08:27.758Z,1.00
2022-12-11T14:10:54.888Z,1.00
2022-12-11T14:13:25.475Z,1.00
2022-12-11T14:15:53.594Z,1.00
2022-12-11T14:18:23.936Z,1.00
2022-12-11T14:20:56.704Z,1.00
2022-12-11T14:23:26.326Z,1.00
2022-12-11T14:25:54.892Z,1.00
2022-12-11T14:28:23.634Z,1.00
2022-12-11T14:30:52.007Z,1.00
2022-12-11T14:33:22.814Z,1.00
2022-12-11T14:35:52.307Z,1.00
2022-12-11T14:38:26.584Z,1.00
2022-12-11T14:40:58.286Z,1.00
2022-12-11T14:43:32.525Z,1.00
2022-12-11T14:46:04.352Z,1.00
2022-12-11T14:48:37.302Z,1.00
2022-12-11T14:51:07.374Z,1.00
2022-12-11T14:53:40.514Z,1.00
2022-12-11T14:56:09.489Z,1.00
2022-12-11T14:58:42.730Z,1.00
2022-12-11T15:01:23.249Z,1.00
2022-12-11T15:03:50.657Z,1.00
2022-12-11T15:06:26.026Z,1.00
2022-12-11T15:08:55.145Z,1.00
2022-12-11T15:11:23.502Z,1.00
2022-12-11T15:13:53.967Z,1.00
2022-12-11T15:16:23.065Z,1.00
2022-12-11T15:18:52.466Z,1.00
2022-12-11T15:21:28.208Z,1.00
2022-12-11T15:23:58.540Z,1.00
2022-12-11T15:26:35.213Z,1.00
2022-12-11T15:29:05.068Z,1.00
2022-12-11T15:31:37.439Z,1.00
2022-12-11T15:34:19.506Z,1.00
2022-12-11T15:36:46.535Z,1.00
2022-12-11T15:39:14.891Z,1.00
2022-12-11T15:41:43.130Z,1.00
2022-12-11T15:44:20.279Z,1.00
2022-12-11T15:46:47.176Z,1.00
2022-12-11T15:49:15.082Z,1.00
2022-12-11T15:51:43.381Z,1.00
2022-12-11T15:54:11.190Z,1.00
2022-12-11T15:56:40.014Z,1.00
2022-12-11T15:59:07.383Z,1.00
2022-12-11T16:01:34.962Z,1.00
2022-12-11T16:04:05.191Z,1.00
2022-12-11T16:06:33.156Z,1.00
2022-12-11T16:09:00.358Z,1.00
2022-12-11T16:11:27.379Z,1.00
2022-12-11T16:13:55.993Z,1.00
2022-12-11T16:16:23.022Z,1.00
2022-12-11T16:18:50.467Z,1.00
2022-12-11T16:21:21.387Z,1.00
2022-12-11T16:23:49.227Z,1.00
2022-12-11T16:26:16.117Z,1.00
2022-12-11T16:28:43.403Z,1.00
2022-12-11T16:31:12.962Z,1.00
2022-12-11T16:33:40.431Z,1.00
2022-12-11T16:36:13.420Z,1.00
2022-12-11T16:38:40.672Z,1.00
2022-12-11T16:41:07.653Z,1.00
2022-12-11T16:43:34.832Z,1.00
2022-12-11T16:46:01.798Z,1.00
2022-12-11T16:48:30.552Z,1.00
2022-12-11T16:50:57.699Z,1.00
2022-12-11T16:53:25.149Z,1.00
2022-12-11T16:55:52.282Z,1.00
2022-12-11T16:58:20.354Z,1.00
2022-12-11T17:00:48.190Z,1.00
2022-12-11T17:03:15.493Z,1.00
2022-12-11T17:05:44.018Z,1.00
2022-12-11T17:08:11.876Z,1.00
2022-12-11T17:10:40.704Z,1.00
2022-12-11T17:13:07.949Z,1.00
2022-12-11T17:15:34.892Z,1.00
2022-12-11T17:18:02.152Z,1.00
2022-12-11T17:20:29.561Z,1.00
2022-12-11T17:22:58.134Z,1.00
2022-12-11T17:25:25.176Z,1.00
2022-12-11T17:27:52.478Z,1.00
2022-12-11T17:30:19.580Z,1.00
2022-12-11T17:32:47.936Z,1.00
2022-12-11T17:35:15.034Z,1.00
2022-12-11T17:37:42.230Z,1.00
2022-12-11T17:40:11.535Z,1.00
2022-12-11T17:42:38.718Z,1.00
2022-12-11T17:45:06.862Z,1.00
2022-12-11T17:47:34.077Z,1.00
2022-12-11T17:50:01.111Z,1.00
2022-12-11T17:52:34.001Z,1.00
2022-12-11T17:55:03.043Z,1.00
2022-12-11T17:57:32.784Z,1.00
2022-12-11T17:59:59.901Z,1.00
2022-12-11T18:02:26.940Z,1.00
2022-12-11T18:04:54.952Z,1.00
2022-12-11T18:07:22.577Z,1.00
2022-12-11T18:09:49.598Z,1.00
2022-12-11T18:12:16.807Z,1.00
2022-12-11T18:14:45.173Z,1.00
2022-12-11T18:17:12.438Z,1.00
2022-12-11T18:19:45.726Z,1.00
2022-12-11T18:22:13.059Z,1.00
2022-12-11T18:24:39.953Z,1.00
2022-12-11T18:27:10.550Z,1.00
2022-12-11T18:29:37.430Z,1.00
2022-12-11T18:32:06.606Z,1.00
2022-12-11T18:34:33.546Z,1.00
2022-12-11T18:37:00.507Z,1.00
2022-12-11T18:39:27.783Z,1.00
2022-12-11T18:42:30.616Z,1.00
2022-12-11T18:44:43.289Z,1.00
2022-12-11T18:47:11.890Z,1.00
2022-12-11T18:49:38.818Z,1.00
2022-12-11T18:52:06.136Z,1.00
2022-12-11T18:54:33.145Z,1.00
2022-12-11T18:57:00.605Z,1.00
2022-12-11T18:59:27.452Z,1.00
2022-12-11T19:01:56.106Z,1.00
2022-12-11T19:04:24.422Z,1.00
2022-12-11T19:06:51.840Z,1.00
2022-12-11T19:09:18.823Z,1.00
2022-12-11T19:11:46.172Z,1.00
2022-12-11T19:14:13.962Z,1.00
2022-12-11T19:16:44.347Z,1.00
2022-12-11T19:19:14.937Z,1.00
2022-12-11T19:21:44.414Z,1.00
2022-12-11T19:24:13.623Z,1.00
2022-12-11T19:26:41.072Z,1.00
2022-12-11T19:29:08.397Z,1.00
2022-12-11T19:31:35.791Z,1.00
2022-12-11T19:34:03.146Z,1.00
2022-12-11T19:36:31.510Z,1.00
2022-12-11T19:39:02.258Z,1.00
2022-12-11T19:41:31.211Z,1.00
2022-12-11T19:44:00.448Z,1.00
2022-12-11T19:46:28.710Z,1.00
2022-12-11T19:48:57.355Z,1.00
2022-12-11T19:51:26.370Z,1.00
2022-12-11T19:53:53.433Z,1.00
2022-12-11T19:56:21.931Z,1.00
2022-12-11T19:58:49.778Z,1.00
2022-12-11T20:01:25.100Z,1.00
2022-12-11T20:03:53.897Z,1.00
2022-12-11T20:06:21.903Z,1.00
2022-12-11T20:08:48.972Z,1.00
2022-12-11T20:11:18.623Z,1.00
2022-12-11T20:13:48.006Z,1.00
2022-12-11T20:16:17.141Z,1.00
2022-12-11T20:18:44.124Z,1.00
2022-12-11T20:21:14.701Z,1.00
2022-12-11T20:23:42.027Z,1.00
2022-12-11T20:26:10.466Z,1.00
2022-12-11T20:28:37.522Z,1.00
2022-12-11T20:31:06.986Z,1.00
2022-12-11T20:33:34.304Z,1.00
2022-12-11T20:36:01.728Z,2.50
2022-12-11T20:38:34.114Z,4.90
2022-12-11T20:41:01.876Z,9.00
2022-12-11T20:43:28.915Z,10.50
2022-12-11T20:45:55.888Z,9.90
2022-12-11T20:48:24.530Z,11.10
2022-12-11T20:50:51.637Z,16.50
2022-12-11T20:53:18.927Z,19.30
2022-12-11T20:55:45.850Z,21.80
2022-12-11T20:58:13.046Z,27.10
2022-12-11T21:00:40.430Z,27.30
2022-12-11T21:03:07.378Z,29.20
2022-12-11T21:05:40.258Z,27.90
2022-12-11T21:08:07.411Z,28.40
2022-12-11T21:10:34.894Z,31.00
2022-12-11T21:13:02.477Z,38.40
2022-12-11T21:15:29.522Z,37.00
2022-12-11T21:17:56.779Z,40.80
2022-12-11T21:20:24.230Z,41.30
2022-12-11T21:22:53.425Z,45.20
2022-12-11T21:25:20.641Z,46.90
2022-12-11T21:27:48.662Z,46.40
2022-12-11T21:30:16.158Z,55.70
2022-12-11T21:32:43.722Z,61.10
2022-12-11T21:35:11.848Z,63.30
2022-12-11T21:37:41.804Z,63.30
2022-12-11T21:40:11.195Z,64.60
2022-12-11T21:45:59.276Z,56.20
2022-12-11T21:48:10.512Z,58.30
2022-12-11T21:50:37.537Z,65.90
2022-12-11T21:53:04.837Z,65.50
2022-12-11T21:55:34.500Z,75.10
2022-12-11T21:58:02.035Z,79.90
2022-12-11T22:00:29.263Z,83.80
2022-12-11T22:02:56.738Z,97.90
2022-12-11T22:05:24.159Z,99.90
2022-12-11T22:07:51.381Z,99.90
2022-12-11T22:10:18.703Z,99.90
2022-12-11T22:12:47.391Z,99.90
2022-12-11T22:15:15.911Z,99.90
2022-12-11T22:17:43.402Z,99.90
2022-12-11T22:20:11.810Z,99.90
2022-12-11T22:22:39.152Z,99.90
2022-12-11T22:25:07.940Z,99.90
2022-12-11T22:27:35.412Z,99.90
2022-12-11T22:30:04.551Z,99.90
2022-12-11T22:32:32.106Z,99.90
2022-12-11T22:34:59.170Z,99.90
2022-12-11T22:37:26.702Z,99.90
2022-12-11T22:39:53.732Z,99.90
2022-12-11T22:42:20.910Z,99.90
2022-12-11T22:44:47.885Z,99.90
2022-12-11T22:47:16.519Z,99.90
2022-12-11T22:49:43.576Z,99.90
2022-12-11T22:52:13.981Z,99.90
2022-12-11T22:54:41.806Z,99.90
2022-12-11T22:57:09.701Z,99.90
2022-12-11T22:59:37.071Z,99.90
2022-12-11T23:02:04.260Z,99.90
2022-12-11T23:04:33.034Z,99.90
2022-12-11T23:07:00.454Z,99.90
2022-12-11T23:09:27.622Z,99.90
2022-12-11T23:11:56.025Z,99.90
2022-12-11T23:14:23.311Z,99.90
2022-12-11T23:16:50.810Z,99.90
2022-12-11T23:19:25.332Z,99.90
2022-12-11T23:21:54.487Z,99.90
2022-12-11T23:24:22.468Z,99.90
2022-12-11T23:26:52.612Z,99.90
2022-12-11T23:29:19.752Z,99.90
2022-12-11T23:31:47.158Z,99.90
2022-12-11T23:34:14.097Z,99.90
2022-12-11T23:36:41.220Z,99.90
2022-12-11T23:39:09.715Z,99.90
2022-12-11T23:41:37.424Z,99.90
2022-12-11T23:44:04.847Z,99.90
2022-12-11T23:46:34.862Z,99.90
2022-12-11T23:49:02.496Z,99.90
2022-12-11T23:51:30.787Z,99.90
2022-12-11T23:53:58.131Z,99.90
2022-12-11T23:56:29.347Z,99.90
2022-12-11T23:58:57.402Z,99.90
